East Herkimer, New York
Current Conditions -  °F | °C
As of 7:53 PM on Saturday 25 Oct 2014 (Local Time) from KRME Reporting Station
Scattered Clouds Scattered Clouds  
Wind Chill: 53°   Ceiling: Unl
Heat Index: 53°   Visibility: 7mi
Dew Point: 50°   Wind: 10mph
Humidity: 89%   Direction: 280°W
Pressure: 29.59"   Gusts: NA
Location:  43.0566°N, 75.0112°W
Report Text: KRME 252353Z 28009KT 7SM SCT020 12/10 A2959 RMK AO2 SLP020 60008 T01170100 10172 20117 53016
Loading
Personal Weather Stations






























Interactive Weather Map
Tropical Storm Tracking
New forecast layout! Learn more

10-Day Weather Forecast

Advertisements
Track Severe Weather on mobile